sensor_id;sensor_type;location;lat;lon;timestamp;pressure;altitude;pressure_sealevel;temperature
66372;BMP180;53168;51.146;17.120;2023-11-21T00:00:17;99316.40;;;8.60
66372;BMP180;53168;51.146;17.120;2023-11-21T00:03:13;99317.40;;;8.60
66372;BMP180;53168;51.146;17.120;2023-11-21T00:05:48;99323.40;;;8.60
66372;BMP180;53168;51.146;17.120;2023-11-21T00:08:24;99322.60;;;8.58
66372;BMP180;53168;51.146;17.120;2023-11-21T00:10:58;99324.20;;;8.60
66372;BMP180;53168;51.146;17.120;2023-11-21T00:13:33;99328.40;;;8.50
66372;BMP180;53168;51.146;17.120;2023-11-21T00:16:10;99328.80;;;8.50
66372;BMP180;53168;51.146;17.120;2023-11-21T00:19:07;99326.00;;;8.48
66372;BMP180;53168;51.146;17.120;2023-11-21T00:22:35;99324.80;;;8.48
66372;BMP180;53168;51.146;17.120;2023-11-21T00:56:53;99337.00;;;8.42
66372;BMP180;53168;51.146;17.120;2023-11-21T00:59:38;99343.80;;;8.40
66372;BMP180;53168;51.146;17.120;2023-11-21T01:02:14;99340.00;;;8.40
66372;BMP180;53168;51.146;17.120;2023-11-21T01:04:48;99342.40;;;8.40
66372;BMP180;53168;51.146;17.120;2023-11-21T01:07:22;99341.40;;;8.40
66372;BMP180;53168;51.146;17.120;2023-11-21T01:09:56;99339.40;;;8.40
66372;BMP180;53168;51.146;17.120;2023-11-21T01:12:33;99343.00;;;8.40
66372;BMP180;53168;51.146;17.120;2023-11-21T01:15:10;99343.60;;;8.32
66372;BMP180;53168;51.146;17.120;2023-11-21T01:20:34;99345.00;;;8.30
66372;BMP180;53168;51.146;17.120;2023-11-21T01:23:09;99347.20;;;8.28
66372;BMP180;53168;51.146;17.120;2023-11-21T01:25:43;99347.40;;;8.22
66372;BMP180;53168;51.146;17.120;2023-11-21T01:28:18;99354.60;;;8.20
66372;BMP180;53168;51.146;17.120;2023-11-21T01:30:53;99351.00;;;8.20
66372;BMP180;53168;51.146;17.120;2023-11-21T01:33:30;99354.80;;;8.14
66372;BMP180;53168;51.146;17.120;2023-11-21T01:36:06;99357.00;;;8.14
66372;BMP180;53168;51.146;17.120;2023-11-21T01:38:41;99355.00;;;8.18
66372;BMP180;53168;51.146;17.120;2023-11-21T01:41:21;99352.80;;;8.20
66372;BMP180;53168;51.146;17.120;2023-11-21T01:44:02;99353.60;;;8.20
66372;BMP180;53168;51.146;17.120;2023-11-21T01:46:45;99353.00;;;8.20
66372;BMP180;53168;51.146;17.120;2023-11-21T01:49:21;99352.80;;;8.20
66372;BMP180;53168;51.146;17.120;2023-11-21T01:51:58;99354.20;;;8.20
66372;BMP180;53168;51.146;17.120;2023-11-21T01:54:43;99354.00;;;8.20
66372;BMP180;53168;51.146;17.120;2023-11-21T01:57:19;99352.20;;;8.20
66372;BMP180;53168;51.146;17.120;2023-11-21T01:59:57;99350.60;;;8.20
66372;BMP180;53168;51.146;17.120;2023-11-21T02:02:32;99349.80;;;8.20
66372;BMP180;53168;51.146;17.120;2023-11-21T02:05:08;99356.00;;;8.20
66372;BMP180;53168;51.146;17.120;2023-11-21T02:07:43;99359.00;;;8.20
66372;BMP180;53168;51.146;17.120;2023-11-21T02:10:23;99357.40;;;8.16
66372;BMP180;53168;51.146;17.120;2023-11-21T02:13:00;99356.20;;;8.18
66372;BMP180;53168;51.146;17.120;2023-11-21T02:15:39;99357.00;;;8.20
66372;BMP180;53168;51.146;17.120;2023-11-21T02:18:15;99359.20;;;8.20
66372;BMP180;53168;51.146;17.120;2023-11-21T02:20:50;99361.00;;;8.18
66372;BMP180;53168;51.146;17.120;2023-11-21T02:23:24;99366.00;;;8.10
66372;BMP180;53168;51.146;17.120;2023-11-21T02:26:01;99366.20;;;8.10
66372;BMP180;53168;51.146;17.120;2023-11-21T02:28:36;99365.60;;;8.00
66372;BMP180;53168;51.146;17.120;2023-11-21T02:31:11;99362.60;;;8.00
66372;BMP180;53168;51.146;17.120;2023-11-21T02:33:47;99363.20;;;8.00
66372;BMP180;53168;51.146;17.120;2023-11-21T02:36:23;99366.60;;;8.00
66372;BMP180;53168;51.146;17.120;2023-11-21T02:38:58;99366.80;;;8.00
66372;BMP180;53168;51.146;17.120;2023-11-21T02:41:36;99363.60;;;8.02
66372;BMP180;53168;51.146;17.120;2023-11-21T02:44:25;99368.40;;;8.10
66372;BMP180;53168;51.146;17.120;2023-11-21T02:47:45;99361.00;;;8.10
66372;BMP180;53168;51.146;17.120;2023-11-21T02:50:20;99368.80;;;8.10
66372;BMP180;53168;51.146;17.120;2023-11-21T02:52:56;99367.20;;;8.10
66372;BMP180;53168;51.146;17.120;2023-11-21T02:55:33;99372.80;;;8.10
66372;BMP180;53168;51.146;17.120;2023-11-21T02:58:08;99375.00;;;8.00
66372;BMP180;53168;51.146;17.120;2023-11-21T03:00:41;99373.00;;;8.00
66372;BMP180;53168;51.146;17.120;2023-11-21T03:03:17;99371.80;;;8.00
66372;BMP180;53168;51.146;17.120;2023-11-21T03:06:15;99372.20;;;8.00
66372;BMP180;53168;51.146;17.120;2023-11-21T03:09:23;99371.60;;;8.00
66372;BMP180;53168;51.146;17.120;2023-11-21T03:37:38;99378.60;;;8.14
66372;BMP180;53168;51.146;17.120;2023-11-21T03:40:14;99381.80;;;8.10
66372;BMP180;53168;51.146;17.120;2023-11-21T03:42:48;99386.00;;;8.10
66372;BMP180;53168;51.146;17.120;2023-11-21T03:45:25;99384.60;;;8.10
66372;BMP180;53168;51.146;17.120;2023-11-21T03:47:59;99389.00;;;8.00
66372;BMP180;53168;51.146;17.120;2023-11-21T03:50:34;99383.20;;;8.00
66372;BMP180;53168;51.146;17.120;2023-11-21T03:53:08;99388.40;;;8.00
66372;BMP180;53168;51.146;17.120;2023-11-21T03:55:42;99384.00;;;8.00
66372;BMP180;53168;51.146;17.120;2023-11-21T03:58:16;99386.40;;;8.00
66372;BMP180;53168;51.146;17.120;2023-11-21T04:00:51;99392.80;;;8.00
66372;BMP180;53168;51.146;17.120;2023-11-21T04:03:25;99395.20;;;8.00
66372;BMP180;53168;51.146;17.120;2023-11-21T04:06:00;99393.20;;;8.02
66372;BMP180;53168;51.146;17.120;2023-11-21T04:08:35;99394.20;;;8.10
66372;BMP180;53168;51.146;17.120;2023-11-21T04:11:10;99396.20;;;8.10
66372;BMP180;53168;51.146;17.120;2023-11-21T04:13:44;99395.40;;;8.12
66372;BMP180;53168;51.146;17.120;2023-11-21T04:16:20;99395.00;;;8.10
66372;BMP180;53168;51.146;17.120;2023-11-21T04:18:55;99392.80;;;8.10
66372;BMP180;53168;51.146;17.120;2023-11-21T04:21:29;99393.00;;;8.10
66372;BMP180;53168;51.146;17.120;2023-11-21T04:24:05;99403.20;;;8.10
66372;BMP180;53168;51.146;17.120;2023-11-21T04:26:39;99402.40;;;8.10
66372;BMP180;53168;51.146;17.120;2023-11-21T04:29:13;99402.40;;;8.10
66372;BMP180;53168;51.146;17.120;2023-11-21T04:31:48;99407.40;;;8.10
66372;BMP180;53168;51.146;17.120;2023-11-21T04:34:23;99406.20;;;8.10
66372;BMP180;53168;51.146;17.120;2023-11-21T04:37:02;99405.60;;;8.10
66372;BMP180;53168;51.146;17.120;2023-11-21T04:39:39;99411.80;;;8.10
66372;BMP180;53168;51.146;17.120;2023-11-21T04:42:14;99408.60;;;8.10
66372;BMP180;53168;51.146;17.120;2023-11-21T04:44:48;99413.60;;;8.10
66372;BMP180;53168;51.146;17.120;2023-11-21T04:47:22;99414.40;;;8.10
66372;BMP180;53168;51.146;17.120;2023-11-21T04:49:56;99413.40;;;8.06
66372;BMP180;53168;51.146;17.120;2023-11-21T04:52:30;99417.40;;;8.00
66372;BMP180;53168;51.146;17.120;2023-11-21T04:55:07;99421.40;;;8.00
66372;BMP180;53168;51.146;17.120;2023-11-21T04:57:43;99416.80;;;7.90
66372;BMP180;53168;51.146;17.120;2023-11-21T05:00:19;99428.80;;;7.90
66372;BMP180;53168;51.146;17.120;2023-11-21T05:02:55;99427.80;;;7.90
66372;BMP180;53168;51.146;17.120;2023-11-21T05:05:31;99426.80;;;7.90
66372;BMP180;53168;51.146;17.120;2023-11-21T05:08:12;99429.80;;;7.94
66372;BMP180;53168;51.146;17.120;2023-11-21T05:10:50;99434.40;;;7.98
66372;BMP180;53168;51.146;17.120;2023-11-21T05:16:41;99440.60;;;8.00
66372;BMP180;53168;51.146;17.120;2023-11-21T05:19:15;99437.20;;;7.90
66372;BMP180;53168;51.146;17.120;2023-11-21T05:21:48;99438.40;;;7.80
66372;BMP180;53168;51.146;17.120;2023-11-21T05:24:22;99438.20;;;7.80
66372;BMP180;53168;51.146;17.120;2023-11-21T05:26:56;99440.40;;;7.80
66372;BMP180;53168;51.146;17.120;2023-11-21T05:29:30;99443.40;;;7.78
66372;BMP180;53168;51.146;17.120;2023-11-21T05:32:10;99441.00;;;7.80
66372;BMP180;53168;51.146;17.120;2023-11-21T05:34:54;99440.60;;;7.80
66372;BMP180;53168;51.146;17.120;2023-11-21T05:37:33;99441.40;;;7.88
66372;BMP180;53168;51.146;17.120;2023-11-21T05:40:11;99439.40;;;7.90
66372;BMP180;53168;51.146;17.120;2023-11-21T05:42:53;99444.20;;;7.90
66372;BMP180;53168;51.146;17.120;2023-11-21T05:45:51;99454.40;;;8.00
66372;BMP180;53168;51.146;17.120;2023-11-21T05:48:25;99454.00;;;8.00
66372;BMP180;53168;51.146;17.120;2023-11-21T05:50:59;99456.40;;;7.90
66372;BMP180;53168;51.146;17.120;2023-11-21T05:53:34;99450.80;;;7.90
66372;BMP180;53168;51.146;17.120;2023-11-21T05:56:15;99454.60;;;7.90
66372;BMP180;53168;51.146;17.120;2023-11-21T05:59:08;99452.80;;;7.80
66372;BMP180;53168;51.146;17.120;2023-11-21T06:01:48;99457.00;;;7.80
66372;BMP180;53168;51.146;17.120;2023-11-21T06:04:22;99457.60;;;7.84
66372;BMP180;53168;51.146;17.120;2023-11-21T06:06:57;99461.00;;;7.90
66372;BMP180;53168;51.146;17.120;2023-11-21T06:09:38;99463.60;;;7.86
66372;BMP180;53168;51.146;17.120;2023-11-21T06:12:16;99461.20;;;7.80
66372;BMP180;53168;51.146;17.120;2023-11-21T06:14:50;99466.60;;;7.80
66372;BMP180;53168;51.146;17.120;2023-11-21T06:17:24;99467.20;;;7.80
66372;BMP180;53168;51.146;17.120;2023-11-21T06:20:00;99479.60;;;7.80
66372;BMP180;53168;51.146;17.120;2023-11-21T06:22:39;99476.20;;;7.80
66372;BMP180;53168;51.146;17.120;2023-11-21T06:25:15;99478.20;;;7.80
66372;BMP180;53168;51.146;17.120;2023-11-21T06:27:51;99485.00;;;7.80
66372;BMP180;53168;51.146;17.120;2023-11-21T06:30:27;99491.00;;;7.80
66372;BMP180;53168;51.146;17.120;2023-11-21T06:33:02;99488.60;;;7.80
66372;BMP180;53168;51.146;17.120;2023-11-21T06:35:37;99492.40;;;7.88
66372;BMP180;53168;51.146;17.120;2023-11-21T06:38:15;99495.20;;;7.90
66372;BMP180;53168;51.146;17.120;2023-11-21T06:40:51;99498.20;;;7.92
66372;BMP180;53168;51.146;17.120;2023-11-21T06:43:26;99500.40;;;8.00
66372;BMP180;53168;51.146;17.120;2023-11-21T06:46:01;99501.40;;;8.00
66372;BMP180;53168;51.146;17.120;2023-11-21T06:48:50;99506.80;;;8.10
66372;BMP180;53168;51.146;17.120;2023-11-21T06:51:26;99510.40;;;8.10
66372;BMP180;53168;51.146;17.120;2023-11-21T06:54:02;99511.80;;;8.10
66372;BMP180;53168;51.146;17.120;2023-11-21T06:56:56;99517.40;;;8.10
66372;BMP180;53168;51.146;17.120;2023-11-21T06:59:40;99509.60;;;8.18
66372;BMP180;53168;51.146;17.120;2023-11-21T07:02:15;99511.00;;;8.20
66372;BMP180;53168;51.146;17.120;2023-11-21T07:04:51;99508.80;;;8.20
66372;BMP180;53168;51.146;17.120;2023-11-21T07:07:26;99508.20;;;8.20
66372;BMP180;53168;51.146;17.120;2023-11-21T07:10:02;99518.00;;;8.20
66372;BMP180;53168;51.146;17.120;2023-11-21T07:12:36;99515.60;;;8.20
66372;BMP180;53168;51.146;17.120;2023-11-21T07:16:02;99517.40;;;8.10
66372;BMP180;53168;51.146;17.120;2023-11-21T07:20:10;99518.00;;;8.16
66372;BMP180;53168;51.146;17.120;2023-11-21T07:22:49;99518.60;;;8.20
66372;BMP180;53168;51.146;17.120;2023-11-21T07:25:23;99522.60;;;8.20
66372;BMP180;53168;51.146;17.120;2023-11-21T07:27:58;99524.40;;;8.20
66372;BMP180;53168;51.146;17.120;2023-11-21T07:30:33;99521.20;;;8.20
66372;BMP180;53168;51.146;17.120;2023-11-21T07:33:19;99522.60;;;8.20
66372;BMP180;53168;51.146;17.120;2023-11-21T07:36:12;99524.60;;;8.20
66372;BMP180;53168;51.146;17.120;2023-11-21T07:43:03;99533.00;;;8.30
66372;BMP180;53168;51.146;17.120;2023-11-21T07:46:32;99536.60;;;8.40
66372;BMP180;53168;51.146;17.120;2023-11-21T07:49:41;99540.40;;;8.40
66372;BMP180;53168;51.146;17.120;2023-11-21T07:52:37;99538.80;;;8.50
66372;BMP180;53168;51.146;17.120;2023-11-21T07:55:42;99542.40;;;8.50
66372;BMP180;53168;51.146;17.120;2023-11-21T07:59:24;99540.00;;;8.50
66372;BMP180;53168;51.146;17.120;2023-11-21T08:02:03;99540.80;;;8.50
66372;BMP180;53168;51.146;17.120;2023-11-21T08:04:39;99545.40;;;8.50
66372;BMP180;53168;51.146;17.120;2023-11-21T08:07:25;99543.60;;;8.48
66372;BMP180;53168;51.146;17.120;2023-11-21T08:10:23;99552.60;;;8.50
66372;BMP180;53168;51.146;17.120;2023-11-21T08:29:51;99563.60;;;8.74
66372;BMP180;53168;51.146;17.120;2023-11-21T08:32:36;99565.40;;;8.80
66372;BMP180;53168;51.146;17.120;2023-11-21T08:35:16;99572.40;;;8.80
66372;BMP180;53168;51.146;17.120;2023-11-21T08:38:04;99575.80;;;8.80
66372;BMP180;53168;51.146;17.120;2023-11-21T08:40:44;99573.60;;;8.80
66372;BMP180;53168;51.146;17.120;2023-11-21T08:43:22;99576.40;;;8.80
66372;BMP180;53168;51.146;17.120;2023-11-21T08:49:34;99578.20;;;8.72
66372;BMP180;53168;51.146;17.120;2023-11-21T08:52:31;99578.40;;;8.80
66372;BMP180;53168;51.146;17.120;2023-11-21T08:55:42;99570.60;;;8.90
66372;BMP180;53168;51.146;17.120;2023-11-21T08:58:20;99571.60;;;9.10
66372;BMP180;53168;51.146;17.120;2023-11-21T09:01:23;99568.00;;;9.30
66372;BMP180;53168;51.146;17.120;2023-11-21T09:05:29;99562.40;;;9.50
66372;BMP180;53168;51.146;17.120;2023-11-21T09:12:20;99564.60;;;9.90
66372;BMP180;53168;51.146;17.120;2023-11-21T09:15:02;99572.20;;;9.90
66372;BMP180;53168;51.146;17.120;2023-11-21T09:17:37;99573.00;;;9.96
66372;BMP180;53168;51.146;17.120;2023-11-21T09:20:14;99580.00;;;9.90
66372;BMP180;53168;51.146;17.120;2023-11-21T09:22:49;99582.00;;;9.80
66372;BMP180;53168;51.146;17.120;2023-11-21T09:25:23;99576.80;;;9.86
66372;BMP180;53168;51.146;17.120;2023-11-21T09:27:57;99580.00;;;9.80
66372;BMP180;53168;51.146;17.120;2023-11-21T09:31:10;99584.80;;;9.80
66372;BMP180;53168;51.146;17.120;2023-11-21T09:33:45;99595.60;;;9.70
66372;BMP180;53168;51.146;17.120;2023-11-21T09:36:25;99589.00;;;9.72
66372;BMP180;53168;51.146;17.120;2023-11-21T09:39:13;99587.80;;;9.70
66372;BMP180;53168;51.146;17.120;2023-11-21T09:46:30;99593.80;;;9.70
66372;BMP180;53168;51.146;17.120;2023-11-21T09:49:09;99592.20;;;9.70
66372;BMP180;53168;51.146;17.120;2023-11-21T09:51:53;99591.20;;;9.60
66372;BMP180;53168;51.146;17.120;2023-11-21T09:54:39;99593.40;;;9.50
66372;BMP180;53168;51.146;17.120;2023-11-21T09:57:32;99596.00;;;9.50
66372;BMP180;53168;51.146;17.120;2023-11-21T10:00:32;99594.00;;;9.50
66372;BMP180;53168;51.146;17.120;2023-11-21T10:03:26;99594.40;;;9.60
66372;BMP180;53168;51.146;17.120;2023-11-21T10:06:48;99601.00;;;9.60
66372;BMP180;53168;51.146;17.120;2023-11-21T10:09:44;99600.00;;;9.60
66372;BMP180;53168;51.146;17.120;2023-11-21T10:12:39;99606.20;;;9.60
66372;BMP180;53168;51.146;17.120;2023-11-21T10:15:30;99611.40;;;9.50
66372;BMP180;53168;51.146;17.120;2023-11-21T10:18:10;99613.20;;;9.50
66372;BMP180;53168;51.146;17.120;2023-11-21T10:20:45;99615.80;;;9.30
66372;BMP180;53168;51.146;17.120;2023-11-21T10:23:31;99619.00;;;9.30
66372;BMP180;53168;51.146;17.120;2023-11-21T10:26:16;99622.80;;;9.20
66372;BMP180;53168;51.146;17.120;2023-11-21T10:29:04;99626.80;;;9.20
66372;BMP180;53168;51.146;17.120;2023-11-21T10:32:07;99625.80;;;9.10
66372;BMP180;53168;51.146;17.120;2023-11-21T10:34:41;99622.80;;;9.02
66372;BMP180;53168;51.146;17.120;2023-11-21T10:37:15;99625.40;;;8.90
66372;BMP180;53168;51.146;17.120;2023-11-21T10:39:55;99625.00;;;8.88
66372;BMP180;53168;51.146;17.120;2023-11-21T10:42:33;99633.00;;;8.80
66372;BMP180;53168;51.146;17.120;2023-11-21T10:45:09;99630.60;;;8.80
66372;BMP180;53168;51.146;17.120;2023-11-21T10:47:47;99633.60;;;8.64
66372;BMP180;53168;51.146;17.120;2023-11-21T10:50:23;99637.00;;;8.50
66372;BMP180;53168;51.146;17.120;2023-11-21T10:53:03;99631.80;;;8.36
66372;BMP180;53168;51.146;17.120;2023-11-21T10:55:38;99643.80;;;8.24
66372;BMP180;53168;51.146;17.120;2023-11-21T10:58:21;99646.00;;;8.20
66372;BMP180;53168;51.146;17.120;2023-11-21T11:00:57;99642.40;;;8.10
66372;BMP180;53168;51.146;17.120;2023-11-21T11:03:47;99648.00;;;8.10
66372;BMP180;53168;51.146;17.120;2023-11-21T11:06:27;99651.60;;;8.10
66372;BMP180;53168;51.146;17.120;2023-11-21T11:09:08;99644.00;;;8.20
66372;BMP180;53168;51.146;17.120;2023-11-21T11:11:47;99643.60;;;8.30
66372;BMP180;53168;51.146;17.120;2023-11-21T11:14:22;99642.40;;;8.40
66372;BMP180;53168;51.146;17.120;2023-11-21T11:16:59;99651.80;;;8.40
66372;BMP180;53168;51.146;17.120;2023-11-21T11:19:43;99651.60;;;8.30
66372;BMP180;53168;51.146;17.120;2023-11-21T11:22:37;99653.40;;;8.14
66372;BMP180;53168;51.146;17.120;2023-11-21T11:25:57;99651.80;;;7.96
66372;BMP180;53168;51.146;17.120;2023-11-21T11:29:02;99658.00;;;7.84
66372;BMP180;53168;51.146;17.120;2023-11-21T11:31:59;99658.40;;;7.80
66372;BMP180;53168;51.146;17.120;2023-11-21T11:34:47;99660.20;;;7.80
66372;BMP180;53168;51.146;17.120;2023-11-21T11:37:38;99663.00;;;7.70
66372;BMP180;53168;51.146;17.120;2023-11-21T11:40:14;99667.20;;;7.62
66372;BMP180;53168;51.146;17.120;2023-11-21T11:43:03;99674.60;;;7.50
66372;BMP180;53168;51.146;17.120;2023-11-21T11:46:16;99680.60;;;7.50
66372;BMP180;53168;51.146;17.120;2023-11-21T11:49:11;99681.20;;;7.40
66372;BMP180;53168;51.146;17.120;2023-11-21T11:52:57;99676.60;;;7.32
66372;BMP180;53168;51.146;17.120;2023-11-21T11:56:23;99678.20;;;7.22
66372;BMP180;53168;51.146;17.120;2023-11-21T11:59:05;99678.40;;;7.20
66372;BMP180;53168;51.146;17.120;2023-11-21T12:01:50;99682.20;;;7.20
66372;BMP180;53168;51.146;17.120;2023-11-21T12:04:42;99689.20;;;7.08
66372;BMP180;53168;51.146;17.120;2023-11-21T12:07:20;99696.80;;;7.00
66372;BMP180;53168;51.146;17.120;2023-11-21T12:10:21;99700.80;;;6.98
66372;BMP180;53168;51.146;17.120;2023-11-21T12:13:29;99702.20;;;6.90
66372;BMP180;53168;51.146;17.120;2023-11-21T12:16:08;99703.20;;;6.90
66372;BMP180;53168;51.146;17.120;2023-11-21T12:18:43;99705.60;;;6.80
66372;BMP180;53168;51.146;17.120;2023-11-21T12:22:23;99701.80;;;6.80
66372;BMP180;53168;51.146;17.120;2023-11-21T12:25:04;99703.60;;;6.70
66372;BMP180;53168;51.146;17.120;2023-11-21T12:28:02;99707.80;;;6.60
66372;BMP180;53168;51.146;17.120;2023-11-21T12:34:49;99718.40;;;6.30
66372;BMP180;53168;51.146;17.120;2023-11-21T12:38:36;99724.60;;;6.12
66372;BMP180;53168;51.146;17.120;2023-11-21T12:43:25;99729.80;;;5.94
66372;BMP180;53168;51.146;17.120;2023-11-21T12:46:12;99734.40;;;5.90
66372;BMP180;53168;51.146;17.120;2023-11-21T12:49:26;99747.80;;;5.80
66372;BMP180;53168;51.146;17.120;2023-11-21T12:52:11;99754.20;;;5.70
66372;BMP180;53168;51.146;17.120;2023-11-21T12:54:42;99757.20;;;5.60
66372;BMP180;53168;51.146;17.120;2023-11-21T12:57:27;99756.60;;;5.50
66372;BMP180;53168;51.146;17.120;2023-11-21T13:04:01;99766.40;;;5.30
66372;BMP180;53168;51.146;17.120;2023-11-21T13:06:53;99770.20;;;5.20
66372;BMP180;53168;51.146;17.120;2023-11-21T13:09:56;99771.20;;;5.10
66372;BMP180;53168;51.146;17.120;2023-11-21T13:12:27;99779.40;;;5.10
66372;BMP180;53168;51.146;17.120;2023-11-21T13:15:05;99781.60;;;5.10
66372;BMP180;53168;51.146;17.120;2023-11-21T13:17:39;99786.40;;;5.00
66372;BMP180;53168;51.146;17.120;2023-11-21T13:20:10;99794.00;;;5.00
66372;BMP180;53168;51.146;17.120;2023-11-21T13:22:51;99796.20;;;4.90
66372;BMP180;53168;51.146;17.120;2023-11-21T13:25:31;99800.80;;;4.82
66372;BMP180;53168;51.146;17.120;2023-11-21T13:28:04;99801.80;;;4.72
66372;BMP180;53168;51.146;17.120;2023-11-21T13:30:35;99803.80;;;4.70
66372;BMP180;53168;51.146;17.120;2023-11-21T13:33:09;99807.60;;;4.66
66372;BMP180;53168;51.146;17.120;2023-11-21T13:35:49;99810.60;;;4.60
66372;BMP180;53168;51.146;17.120;2023-11-21T13:39:17;99811.00;;;4.50
66372;BMP180;53168;51.146;17.120;2023-11-21T13:41:49;99825.20;;;4.40
66372;BMP180;53168;51.146;17.120;2023-11-21T13:45:22;99826.40;;;4.30
66372;BMP180;53168;51.146;17.120;2023-11-21T13:48:01;99834.20;;;4.20
66372;BMP180;53168;51.146;17.120;2023-11-21T13:50:32;99839.00;;;4.10
66372;BMP180;53168;51.146;17.120;2023-11-21T13:53:08;99839.80;;;4.10
66372;BMP180;53168;51.146;17.120;2023-11-21T13:55:54;99836.40;;;4.02
66372;BMP180;53168;51.146;17.120;2023-11-21T13:58:26;99841.60;;;4.00
66372;BMP180;53168;51.146;17.120;2023-11-21T14:01:09;99846.60;;;4.00
66372;BMP180;53168;51.146;17.120;2023-11-21T14:03:54;99845.80;;;4.00
66372;BMP180;53168;51.146;17.120;2023-11-21T14:06:29;99856.20;;;3.90
66372;BMP180;53168;51.146;17.120;2023-11-21T14:09:06;99856.80;;;3.90
66372;BMP180;53168;51.146;17.120;2023-11-21T14:11:37;99861.20;;;3.90
66372;BMP180;53168;51.146;17.120;2023-11-21T14:14:16;99870.40;;;3.90
66372;BMP180;53168;51.146;17.120;2023-11-21T14:16:47;99874.40;;;3.86
66372;BMP180;53168;51.146;17.120;2023-11-21T14:19:19;99878.80;;;3.82
66372;BMP180;53168;51.146;17.120;2023-11-21T14:21:50;99885.60;;;3.80
66372;BMP180;53168;51.146;17.120;2023-11-21T14:24:20;99892.40;;;3.78
66372;BMP180;53168;51.146;17.120;2023-11-21T14:26:51;99898.20;;;3.70
66372;BMP180;53168;51.146;17.120;2023-11-21T14:29:22;99899.80;;;3.62
66372;BMP180;53168;51.146;17.120;2023-11-21T14:31:52;99905.60;;;3.60
66372;BMP180;53168;51.146;17.120;2023-11-21T14:34:26;99907.00;;;3.60
66372;BMP180;53168;51.146;17.120;2023-11-21T14:36:57;99914.80;;;3.50
66372;BMP180;53168;51.146;17.120;2023-11-21T14:39:32;99913.60;;;3.50
66372;BMP180;53168;51.146;17.120;2023-11-21T14:42:29;99916.80;;;3.40
66372;BMP180;53168;51.146;17.120;2023-11-21T14:45:36;99920.60;;;3.40
66372;BMP180;53168;51.146;17.120;2023-11-21T14:48:11;99927.80;;;3.30
66372;BMP180;53168;51.146;17.120;2023-11-21T14:51:23;99930.40;;;3.30
66372;BMP180;53168;51.146;17.120;2023-11-21T14:54:17;99937.20;;;3.30
66372;BMP180;53168;51.146;17.120;2023-11-21T14:56:57;99938.40;;;3.20
66372;BMP180;53168;51.146;17.120;2023-11-21T14:59:28;99940.60;;;3.10
66372;BMP180;53168;51.146;17.120;2023-11-21T15:02:02;99945.80;;;3.10
66372;BMP180;53168;51.146;17.120;2023-11-21T15:04:54;99948.00;;;3.10
66372;BMP180;53168;51.146;17.120;2023-11-21T15:07:31;99954.00;;;3.10
66372;BMP180;53168;51.146;17.120;2023-11-21T15:10:06;99956.20;;;3.10
66372;BMP180;53168;51.146;17.120;2023-11-21T15:12:46;99960.00;;;3.10
66372;BMP180;53168;51.146;17.120;2023-11-21T15:15:17;99964.60;;;3.00
66372;BMP180;53168;51.146;17.120;2023-11-21T15:17:48;99964.40;;;2.94
66372;BMP180;53168;51.146;17.120;2023-11-21T15:20:19;99963.40;;;2.90
66372;BMP180;53168;51.146;17.120;2023-11-21T15:22:54;99968.80;;;2.96
66372;BMP180;53168;51.146;17.120;2023-11-21T15:26:22;99974.60;;;3.00
66372;BMP180;53168;51.146;17.120;2023-11-21T15:29:46;99979.20;;;2.90
66372;BMP180;53168;51.146;17.120;2023-11-21T15:32:40;99993.40;;;2.88
66372;BMP180;53168;51.146;17.120;2023-11-21T15:38:36;100004.00;;;2.80
66372;BMP180;53168;51.146;17.120;2023-11-21T15:45:10;100024.40;;;2.80
66372;BMP180;53168;51.146;17.120;2023-11-21T15:48:28;100024.20;;;2.80
66372;BMP180;53168;51.146;17.120;2023-11-21T15:52:01;100020.80;;;2.80
66372;BMP180;53168;51.146;17.120;2023-11-21T15:57:03;100030.20;;;2.70
66372;BMP180;53168;51.146;17.120;2023-11-21T16:00:20;100031.00;;;2.70
66372;BMP180;53168;51.146;17.120;2023-11-21T16:06:43;100047.40;;;2.70
66372;BMP180;53168;51.146;17.120;2023-11-21T16:20:57;100078.80;;;2.62
66372;BMP180;53168;51.146;17.120;2023-11-21T16:23:38;100091.80;;;2.60
66372;BMP180;53168;51.146;17.120;2023-11-21T16:26:15;100100.40;;;2.50
66372;BMP180;53168;51.146;17.120;2023-11-21T16:29:05;100104.80;;;2.40
66372;BMP180;53168;51.146;17.120;2023-11-21T16:31:40;100105.60;;;2.40
66372;BMP180;53168;51.146;17.120;2023-11-21T16:34:18;100102.60;;;2.30
66372;BMP180;53168;51.146;17.120;2023-11-21T16:36:55;100098.80;;;2.20
66372;BMP180;53168;51.146;17.120;2023-11-21T16:39:30;100101.60;;;2.12
66372;BMP180;53168;51.146;17.120;2023-11-21T16:42:06;100106.80;;;2.14
66372;BMP180;53168;51.146;17.120;2023-11-21T16:44:45;100112.60;;;2.10
66372;BMP180;53168;51.146;17.120;2023-11-21T16:48:02;100123.00;;;2.10
66372;BMP180;53168;51.146;17.120;2023-11-21T16:51:07;100122.20;;;2.02
66372;BMP180;53168;51.146;17.120;2023-11-21T16:54:14;100132.20;;;2.00
66372;BMP180;53168;51.146;17.120;2023-11-21T17:03:21;100139.60;;;1.94
66372;BMP180;53168;51.146;17.120;2023-11-21T17:05:59;100147.00;;;1.90
66372;BMP180;53168;51.146;17.120;2023-11-21T17:08:58;100154.60;;;1.90
66372;BMP180;53168;51.146;17.120;2023-11-21T17:12:23;100160.00;;;1.90
66372;BMP180;53168;51.146;17.120;2023-11-21T17:15:09;100161.00;;;1.88
66372;BMP180;53168;51.146;17.120;2023-11-21T17:21:30;100162.40;;;1.80
66372;BMP180;53168;51.146;17.120;2023-11-21T17:24:08;100169.20;;;1.80
66372;BMP180;53168;51.146;17.120;2023-11-21T17:26:46;100177.20;;;1.70
66372;BMP180;53168;51.146;17.120;2023-11-21T17:29:24;100170.20;;;1.70
66372;BMP180;53168;51.146;17.120;2023-11-21T17:32:04;100179.20;;;1.66
66372;BMP180;53168;51.146;17.120;2023-11-21T17:35:21;100179.00;;;1.70
66372;BMP180;53168;51.146;17.120;2023-11-21T17:38:17;100177.60;;;1.70
66372;BMP180;53168;51.146;17.120;2023-11-21T17:41:38;100182.00;;;1.74
66372;BMP180;53168;51.146;17.120;2023-11-21T17:50:15;100193.80;;;1.80
66372;BMP180;53168;51.146;17.120;2023-11-21T17:53:20;100199.20;;;1.80
66372;BMP180;53168;51.146;17.120;2023-11-21T17:56:29;100210.40;;;1.80
66372;BMP180;53168;51.146;17.120;2023-11-21T18:03:27;100221.00;;;1.66
66372;BMP180;53168;51.146;17.120;2023-11-21T18:07:03;100223.40;;;1.70
66372;BMP180;53168;51.146;17.120;2023-11-21T18:10:31;100228.20;;;1.60
66372;BMP180;53168;51.146;17.120;2023-11-21T18:13:11;100232.40;;;1.60
66372;BMP180;53168;51.146;17.120;2023-11-21T18:20:18;100231.80;;;1.60